sensor_id;sensor_type;location;lat;lon;timestamp;temperature;humidity
10530;DHT22;5313;48.834;9.228;2023-04-03T00:01:00;4.60;99.90
10530;DHT22;5313;48.834;9.228;2023-04-03T00:03:26;4.50;99.90
10530;DHT22;5313;48.834;9.228;2023-04-03T00:05:52;4.50;99.90
10530;DHT22;5313;48.834;9.228;2023-04-03T00:08:17;4.50;99.90
10530;DHT22;5313;48.834;9.228;2023-04-03T00:10:43;4.50;99.90
10530;DHT22;5313;48.834;9.228;2023-04-03T00:13:09;4.60;99.90
10530;DHT22;5313;48.834;9.228;2023-04-03T00:15:36;4.40;99.90
10530;DHT22;5313;48.834;9.228;2023-04-03T00:18:02;4.40;99.90
10530;DHT22;5313;48.834;9.228;2023-04-03T00:20:28;4.40;99.90
10530;DHT22;5313;48.834;9.228;2023-04-03T00:22:54;4.30;99.90
10530;DHT22;5313;48.834;9.228;2023-04-03T00:25:20;4.30;99.90
10530;DHT22;5313;48.834;9.228;2023-04-03T00:27:46;4.30;99.90
10530;DHT22;5313;48.834;9.228;2023-04-03T00:30:14;4.40;99.90
10530;DHT22;5313;48.834;9.228;2023-04-03T00:32:40;4.30;99.90
10530;DHT22;5313;48.834;9.228;2023-04-03T00:35:06;4.20;99.90
10530;DHT22;5313;48.834;9.228;2023-04-03T00:37:32;4.30;99.90
10530;DHT22;5313;48.834;9.228;2023-04-03T00:39:57;4.30;99.90
10530;DHT22;5313;48.834;9.228;2023-04-03T00:42:23;4.30;99.90
10530;DHT22;5313;48.834;9.228;2023-04-03T00:47:16;4.20;99.90
10530;DHT22;5313;48.834;9.228;2023-04-03T00:49:42;4.20;99.90
10530;DHT22;5313;48.834;9.228;2023-04-03T00:52:12;4.20;99.90
10530;DHT22;5313;48.834;9.228;2023-04-03T00:54:41;4.10;99.90
10530;DHT22;5313;48.834;9.228;2023-04-03T00:57:07;4.10;99.90
10530;DHT22;5313;48.834;9.228;2023-04-03T00:59:38;4.20;99.90
10530;DHT22;5313;48.834;9.228;2023-04-03T01:02:05;4.10;99.90
10530;DHT22;5313;48.834;9.228;2023-04-03T01:04:33;4.10;99.90
10530;DHT22;5313;48.834;9.228;2023-04-03T01:07:17;4.20;99.90
10530;DHT22;5313;48.834;9.228;2023-04-03T01:09:45;4.10;99.90
10530;DHT22;5313;48.834;9.228;2023-04-03T01:12:16;4.00;99.90
10530;DHT22;5313;48.834;9.228;2023-04-03T01:14:44;4.00;99.90
10530;DHT22;5313;48.834;9.228;2023-04-03T01:20:28;4.20;99.90
10530;DHT22;5313;48.834;9.228;2023-04-03T01:25:38;4.10;99.90
10530;DHT22;5313;48.834;9.228;2023-04-03T01:28:05;4.10;99.90
10530;DHT22;5313;48.834;9.228;2023-04-03T01:30:33;4.00;99.90
10530;DHT22;5313;48.834;9.228;2023-04-03T01:33:00;3.90;99.90
10530;DHT22;5313;48.834;9.228;2023-04-03T01:35:25;4.00;99.90
10530;DHT22;5313;48.834;9.228;2023-04-03T01:37:51;3.90;99.90
10530;DHT22;5313;48.834;9.228;2023-04-03T01:40:17;3.90;99.90
10530;DHT22;5313;48.834;9.228;2023-04-03T01:42:42;3.90;99.90
10530;DHT22;5313;48.834;9.228;2023-04-03T01:45:08;4.00;99.90
10530;DHT22;5313;48.834;9.228;2023-04-03T01:47:34;4.00;99.90
10530;DHT22;5313;48.834;9.228;2023-04-03T01:49:59;3.90;99.90
10530;DHT22;5313;48.834;9.228;2023-04-03T01:52:25;3.80;99.90
10530;DHT22;5313;48.834;9.228;2023-04-03T01:54:50;3.80;99.90
10530;DHT22;5313;48.834;9.228;2023-04-03T01:57:16;3.80;99.90
10530;DHT22;5313;48.834;9.228;2023-04-03T01:59:42;3.80;99.90
10530;DHT22;5313;48.834;9.228;2023-04-03T02:02:07;3.80;99.90
10530;DHT22;5313;48.834;9.228;2023-04-03T02:04:33;3.80;99.90
10530;DHT22;5313;48.834;9.228;2023-04-03T02:06:58;3.70;99.90
10530;DHT22;5313;48.834;9.228;2023-04-03T02:09:24;3.70;99.90
10530;DHT22;5313;48.834;9.228;2023-04-03T02:11:49;3.70;99.90
10530;DHT22;5313;48.834;9.228;2023-04-03T02:14:15;3.70;99.90
10530;DHT22;5313;48.834;9.228;2023-04-03T02:16:40;3.70;99.90
10530;DHT22;5313;48.834;9.228;2023-04-03T02:19:06;5.20;99.90
10530;DHT22;5313;48.834;9.228;2023-04-03T02:21:31;3.70;99.90
10530;DHT22;5313;48.834;9.228;2023-04-03T02:23:57;3.80;99.90
10530;DHT22;5313;48.834;9.228;2023-04-03T02:26:23;3.70;99.90
10530;DHT22;5313;48.834;9.228;2023-04-03T02:28:48;3.70;99.90
10530;DHT22;5313;48.834;9.228;2023-04-03T02:31:15;3.80;99.90
10530;DHT22;5313;48.834;9.228;2023-04-03T02:33:41;3.80;99.90
10530;DHT22;5313;48.834;9.228;2023-04-03T02:36:08;3.80;99.90
10530;DHT22;5313;48.834;9.228;2023-04-03T02:38:34;3.80;99.90
10530;DHT22;5313;48.834;9.228;2023-04-03T02:41:05;3.80;99.90
10530;DHT22;5313;48.834;9.228;2023-04-03T02:43:31;3.90;99.90
10530;DHT22;5313;48.834;9.228;2023-04-03T02:45:57;4.00;99.90
10530;DHT22;5313;48.834;9.228;2023-04-03T02:48:23;3.90;99.90
10530;DHT22;5313;48.834;9.228;2023-04-03T02:50:49;3.90;99.90
10530;DHT22;5313;48.834;9.228;2023-04-03T02:53:14;4.00;99.90
10530;DHT22;5313;48.834;9.228;2023-04-03T02:55:41;4.00;99.90
10530;DHT22;5313;48.834;9.228;2023-04-03T02:58:06;4.00;99.90
10530;DHT22;5313;48.834;9.228;2023-04-03T03:00:32;4.00;99.90
10530;DHT22;5313;48.834;9.228;2023-04-03T03:02:58;4.00;99.90
10530;DHT22;5313;48.834;9.228;2023-04-03T03:05:23;4.00;99.90
10530;DHT22;5313;48.834;9.228;2023-04-03T03:07:49;4.10;99.90
10530;DHT22;5313;48.834;9.228;2023-04-03T03:10:15;4.00;99.90
10530;DHT22;5313;48.834;9.228;2023-04-03T03:12:40;4.00;99.90
10530;DHT22;5313;48.834;9.228;2023-04-03T03:15:06;4.00;99.90
10530;DHT22;5313;48.834;9.228;2023-04-03T03:17:32;4.00;99.90
10530;DHT22;5313;48.834;9.228;2023-04-03T03:19:58;3.90;99.90
10530;DHT22;5313;48.834;9.228;2023-04-03T03:22:25;4.00;99.90
10530;DHT22;5313;48.834;9.228;2023-04-03T03:24:51;4.00;99.90
10530;DHT22;5313;48.834;9.228;2023-04-03T03:27:17;4.00;99.90
10530;DHT22;5313;48.834;9.228;2023-04-03T03:29:42;4.00;99.90
10530;DHT22;5313;48.834;9.228;2023-04-03T03:32:08;4.00;99.90
10530;DHT22;5313;48.834;9.228;2023-04-03T03:34:33;4.00;99.90
10530;DHT22;5313;48.834;9.228;2023-04-03T03:36:59;4.20;99.90
10530;DHT22;5313;48.834;9.228;2023-04-03T03:39:25;4.10;99.90
10530;DHT22;5313;48.834;9.228;2023-04-03T03:41:51;4.20;99.90
10530;DHT22;5313;48.834;9.228;2023-04-03T03:44:19;4.10;99.90
10530;DHT22;5313;48.834;9.228;2023-04-03T03:46:44;4.10;99.90
10530;DHT22;5313;48.834;9.228;2023-04-03T03:49:10;4.20;99.90
10530;DHT22;5313;48.834;9.228;2023-04-03T03:51:37;4.10;99.90
10530;DHT22;5313;48.834;9.228;2023-04-03T03:54:03;4.10;99.90
10530;DHT22;5313;48.834;9.228;2023-04-03T03:56:29;4.20;99.90
10530;DHT22;5313;48.834;9.228;2023-04-03T03:58:54;4.10;99.90
10530;DHT22;5313;48.834;9.228;2023-04-03T04:01:22;4.10;99.90
10530;DHT22;5313;48.834;9.228;2023-04-03T04:03:47;4.10;99.90
10530;DHT22;5313;48.834;9.228;2023-04-03T04:06:13;4.10;99.90
10530;DHT22;5313;48.834;9.228;2023-04-03T04:08:39;4.10;99.90
10530;DHT22;5313;48.834;9.228;2023-04-03T04:11:04;4.00;99.90
10530;DHT22;5313;48.834;9.228;2023-04-03T04:13:30;4.00;99.90
10530;DHT22;5313;48.834;9.228;2023-04-03T04:15:55;4.00;99.90
10530;DHT22;5313;48.834;9.228;2023-04-03T04:18:21;4.00;99.90
10530;DHT22;5313;48.834;9.228;2023-04-03T04:20:48;4.10;99.90
10530;DHT22;5313;48.834;9.228;2023-04-03T04:23:13;4.10;99.90
10530;DHT22;5313;48.834;9.228;2023-04-03T04:25:39;4.00;99.90
10530;DHT22;5313;48.834;9.228;2023-04-03T04:28:05;4.00;99.90
10530;DHT22;5313;48.834;9.228;2023-04-03T04:30:30;4.00;99.90
10530;DHT22;5313;48.834;9.228;2023-04-03T04:32:56;4.00;99.90
10530;DHT22;5313;48.834;9.228;2023-04-03T04:35:21;4.00;99.90
10530;DHT22;5313;48.834;9.228;2023-04-03T04:37:47;4.00;99.90
10530;DHT22;5313;48.834;9.228;2023-04-03T04:40:12;4.10;99.90
10530;DHT22;5313;48.834;9.228;2023-04-03T04:42:38;4.20;99.90
10530;DHT22;5313;48.834;9.228;2023-04-03T04:45:04;4.00;99.90
10530;DHT22;5313;48.834;9.228;2023-04-03T04:47:29;4.10;99.90
10530;DHT22;5313;48.834;9.228;2023-04-03T04:49:55;4.10;99.90
10530;DHT22;5313;48.834;9.228;2023-04-03T04:52:21;4.10;99.90
10530;DHT22;5313;48.834;9.228;2023-04-03T04:54:46;4.00;99.90
10530;DHT22;5313;48.834;9.228;2023-04-03T04:57:12;4.00;99.90
10530;DHT22;5313;48.834;9.228;2023-04-03T04:59:37;4.10;99.90
10530;DHT22;5313;48.834;9.228;2023-04-03T05:02:03;4.00;99.90
10530;DHT22;5313;48.834;9.228;2023-04-03T05:04:28;4.10;99.90
10530;DHT22;5313;48.834;9.228;2023-04-03T05:06:54;4.00;99.90
10530;DHT22;5313;48.834;9.228;2023-04-03T05:09:19;4.10;99.90
10530;DHT22;5313;48.834;9.228;2023-04-03T05:11:45;4.00;99.90
10530;DHT22;5313;48.834;9.228;2023-04-03T05:14:11;4.00;99.90
10530;DHT22;5313;48.834;9.228;2023-04-03T05:16:37;4.00;99.90
10530;DHT22;5313;48.834;9.228;2023-04-03T05:19:03;4.00;99.90
10530;DHT22;5313;48.834;9.228;2023-04-03T05:21:29;4.00;99.90
10530;DHT22;5313;48.834;9.228;2023-04-03T05:23:58;4.00;99.90
10530;DHT22;5313;48.834;9.228;2023-04-03T05:26:24;4.00;99.90
10530;DHT22;5313;48.834;9.228;2023-04-03T05:28:51;4.00;99.90
10530;DHT22;5313;48.834;9.228;2023-04-03T05:31:17;4.00;99.90
10530;DHT22;5313;48.834;9.228;2023-04-03T05:33:43;3.90;99.90
10530;DHT22;5313;48.834;9.228;2023-04-03T05:36:08;4.00;99.90
10530;DHT22;5313;48.834;9.228;2023-04-03T05:38:34;3.90;99.90
10530;DHT22;5313;48.834;9.228;2023-04-03T05:41:00;3.90;99.90
10530;DHT22;5313;48.834;9.228;2023-04-03T05:43:25;3.90;99.90
10530;DHT22;5313;48.834;9.228;2023-04-03T05:45:51;3.90;99.90
10530;DHT22;5313;48.834;9.228;2023-04-03T05:48:17;3.90;99.90
10530;DHT22;5313;48.834;9.228;2023-04-03T05:50:43;3.90;99.90
10530;DHT22;5313;48.834;9.228;2023-04-03T05:53:22;3.90;99.90
10530;DHT22;5313;48.834;9.228;2023-04-03T05:55:50;4.00;99.90
10530;DHT22;5313;48.834;9.228;2023-04-03T05:58:15;3.90;99.90
10530;DHT22;5313;48.834;9.228;2023-04-03T06:00:41;3.90;99.90
10530;DHT22;5313;48.834;9.228;2023-04-03T06:03:06;3.90;99.90
10530;DHT22;5313;48.834;9.228;2023-04-03T06:05:32;4.00;99.90
10530;DHT22;5313;48.834;9.228;2023-04-03T06:07:58;4.00;99.90
10530;DHT22;5313;48.834;9.228;2023-04-03T06:10:23;4.00;99.90
10530;DHT22;5313;48.834;9.228;2023-04-03T06:12:49;4.10;99.90
10530;DHT22;5313;48.834;9.228;2023-04-03T06:15:15;4.20;99.90
10530;DHT22;5313;48.834;9.228;2023-04-03T06:17:42;4.20;99.90
10530;DHT22;5313;48.834;9.228;2023-04-03T06:20:08;3.60;99.90
10530;DHT22;5313;48.834;9.228;2023-04-03T06:22:35;4.20;99.90
10530;DHT22;5313;48.834;9.228;2023-04-03T06:25:00;4.20;99.90
10530;DHT22;5313;48.834;9.228;2023-04-03T06:27:26;4.30;99.90
10530;DHT22;5313;48.834;9.228;2023-04-03T06:29:51;4.20;99.90
10530;DHT22;5313;48.834;9.228;2023-04-03T06:32:17;4.30;99.90
10530;DHT22;5313;48.834;9.228;2023-04-03T06:34:42;4.20;99.90
10530;DHT22;5313;48.834;9.228;2023-04-03T06:37:26;4.20;99.90
10530;DHT22;5313;48.834;9.228;2023-04-03T06:39:53;4.30;99.90
10530;DHT22;5313;48.834;9.228;2023-04-03T06:42:18;4.30;99.90
10530;DHT22;5313;48.834;9.228;2023-04-03T06:44:44;4.20;99.90
10530;DHT22;5313;48.834;9.228;2023-04-03T06:47:13;4.20;99.90
10530;DHT22;5313;48.834;9.228;2023-04-03T06:49:38;4.20;99.90
10530;DHT22;5313;48.834;9.228;2023-04-03T06:52:04;4.20;99.90
10530;DHT22;5313;48.834;9.228;2023-04-03T06:54:30;4.20;99.90
10530;DHT22;5313;48.834;9.228;2023-04-03T06:56:56;4.10;99.90
10530;DHT22;5313;48.834;9.228;2023-04-03T06:59:22;4.20;99.90
10530;DHT22;5313;48.834;9.228;2023-04-03T07:01:47;4.30;99.90
10530;DHT22;5313;48.834;9.228;2023-04-03T07:04:14;4.40;99.90
10530;DHT22;5313;48.834;9.228;2023-04-03T07:06:40;4.40;99.90
10530;DHT22;5313;48.834;9.228;2023-04-03T07:09:05;4.50;99.90
10530;DHT22;5313;48.834;9.228;2023-04-03T07:11:31;4.50;99.90
10530;DHT22;5313;48.834;9.228;2023-04-03T07:13:57;4.60;99.90
10530;DHT22;5313;48.834;9.228;2023-04-03T07:16:22;4.60;99.90
10530;DHT22;5313;48.834;9.228;2023-04-03T07:18:48;4.50;99.90
10530;DHT22;5313;48.834;9.228;2023-04-03T07:21:14;4.60;99.90
10530;DHT22;5313;48.834;9.228;2023-04-03T07:23:39;4.70;99.90
10530;DHT22;5313;48.834;9.228;2023-04-03T07:26:05;4.70;99.90
10530;DHT22;5313;48.834;9.228;2023-04-03T07:28:31;4.80;99.90
10530;DHT22;5313;48.834;9.228;2023-04-03T07:31:05;4.90;99.90
10530;DHT22;5313;48.834;9.228;2023-04-03T07:33:34;4.80;99.90
10530;DHT22;5313;48.834;9.228;2023-04-03T07:36:00;4.90;99.90
10530;DHT22;5313;48.834;9.228;2023-04-03T07:38:26;5.00;99.90
10530;DHT22;5313;48.834;9.228;2023-04-03T07:40:52;4.90;99.90
10530;DHT22;5313;48.834;9.228;2023-04-03T07:43:18;4.90;99.90
10530;DHT22;5313;48.834;9.228;2023-04-03T07:45:45;5.00;99.90
10530;DHT22;5313;48.834;9.228;2023-04-03T07:48:12;4.90;99.90
10530;DHT22;5313;48.834;9.228;2023-04-03T07:50:41;4.80;99.90
10530;DHT22;5313;48.834;9.228;2023-04-03T07:53:07;4.80;99.90
10530;DHT22;5313;48.834;9.228;2023-04-03T07:55:33;4.90;99.90
10530;DHT22;5313;48.834;9.228;2023-04-03T07:57:59;5.20;99.90
10530;DHT22;5313;48.834;9.228;2023-04-03T08:00:24;5.30;99.90
10530;DHT22;5313;48.834;9.228;2023-04-03T08:02:50;5.20;99.90
10530;DHT22;5313;48.834;9.228;2023-04-03T08:05:20;5.10;99.90
10530;DHT22;5313;48.834;9.228;2023-04-03T08:07:47;5.20;99.90
10530;DHT22;5313;48.834;9.228;2023-04-03T08:10:13;5.10;99.90
10530;DHT22;5313;48.834;9.228;2023-04-03T08:12:40;5.00;99.90
10530;DHT22;5313;48.834;9.228;2023-04-03T08:15:07;5.10;99.90
10530;DHT22;5313;48.834;9.228;2023-04-03T08:17:33;5.10;99.90
10530;DHT22;5313;48.834;9.228;2023-04-03T08:20:00;5.10;99.90
10530;DHT22;5313;48.834;9.228;2023-04-03T08:22:25;5.20;99.90
10530;DHT22;5313;48.834;9.228;2023-04-03T08:24:51;5.50;99.90
10530;DHT22;5313;48.834;9.228;2023-04-03T08:27:17;5.50;99.90
10530;DHT22;5313;48.834;9.228;2023-04-03T08:29:42;5.70;99.90
10530;DHT22;5313;48.834;9.228;2023-04-03T08:32:08;5.70;99.90
10530;DHT22;5313;48.834;9.228;2023-04-03T08:34:33;5.70;99.90
10530;DHT22;5313;48.834;9.228;2023-04-03T08:37:01;5.60;99.90
10530;DHT22;5313;48.834;9.228;2023-04-03T08:39:26;5.70;99.90
10530;DHT22;5313;48.834;9.228;2023-04-03T08:41:58;5.80;99.90
10530;DHT22;5313;48.834;9.228;2023-04-03T08:47:02;5.60;99.90
10530;DHT22;5313;48.834;9.228;2023-04-03T08:49:36;5.50;99.90
10530;DHT22;5313;48.834;9.228;2023-04-03T08:52:08;5.60;99.90
10530;DHT22;5313;48.834;9.228;2023-04-03T08:54:53;5.60;99.90
10530;DHT22;5313;48.834;9.228;2023-04-03T08:59:57;5.50;99.90
10530;DHT22;5313;48.834;9.228;2023-04-03T09:02:41;5.90;99.90
10530;DHT22;5313;48.834;9.228;2023-04-03T09:08:14;6.10;99.90
10530;DHT22;5313;48.834;9.228;2023-04-03T09:10:43;6.00;99.90
10530;DHT22;5313;48.834;9.228;2023-04-03T09:13:33;6.00;99.90
10530;DHT22;5313;48.834;9.228;2023-04-03T09:16:03;6.00;99.90
10530;DHT22;5313;48.834;9.228;2023-04-03T09:18:40;6.00;99.90
10530;DHT22;5313;48.834;9.228;2023-04-03T09:21:25;6.10;99.90
10530;DHT22;5313;48.834;9.228;2023-04-03T09:23:55;6.10;99.90
10530;DHT22;5313;48.834;9.228;2023-04-03T09:26:26;6.20;99.90
10530;DHT22;5313;48.834;9.228;2023-04-03T09:28:58;6.30;99.90
10530;DHT22;5313;48.834;9.228;2023-04-03T09:31:35;6.10;99.90
10530;DHT22;5313;48.834;9.228;2023-04-03T09:34:13;6.20;99.90
10530;DHT22;5313;48.834;9.228;2023-04-03T09:36:43;6.10;99.90
10530;DHT22;5313;48.834;9.228;2023-04-03T09:39:14;6.10;99.90
10530;DHT22;5313;48.834;9.228;2023-04-03T09:41:40;6.10;99.90
10530;DHT22;5313;48.834;9.228;2023-04-03T09:44:24;6.10;99.90
10530;DHT22;5313;48.834;9.228;2023-04-03T09:46:50;6.20;99.90
10530;DHT22;5313;48.834;9.228;2023-04-03T09:49:17;6.40;99.90
10530;DHT22;5313;48.834;9.228;2023-04-03T09:51:42;6.40;99.90
10530;DHT22;5313;48.834;9.228;2023-04-03T09:54:37;6.50;99.90
10530;DHT22;5313;48.834;9.228;2023-04-03T09:57:09;6.50;99.90
10530;DHT22;5313;48.834;9.228;2023-04-03T09:59:37;6.60;99.90
10530;DHT22;5313;48.834;9.228;2023-04-03T10:02:24;6.60;99.90
10530;DHT22;5313;48.834;9.228;2023-04-03T10:04:53;6.40;99.90
10530;DHT22;5313;48.834;9.228;2023-04-03T10:07:36;6.40;99.90
10530;DHT22;5313;48.834;9.228;2023-04-03T10:12:39;6.30;99.90
10530;DHT22;5313;48.834;9.228;2023-04-03T10:15:13;6.30;99.90
10530;DHT22;5313;48.834;9.228;2023-04-03T10:23:23;6.50;99.90
10530;DHT22;5313;48.834;9.228;2023-04-03T10:29:01;6.20;99.90
10530;DHT22;5313;48.834;9.228;2023-04-03T10:31:37;6.10;99.90
10530;DHT22;5313;48.834;9.228;2023-04-03T10:34:52;6.00;99.90
10530;DHT22;5313;48.834;9.228;2023-04-03T10:37:06;6.20;99.90
10530;DHT22;5313;48.834;9.228;2023-04-03T10:39:59;6.20;99.90
10530;DHT22;5313;48.834;9.228;2023-04-03T10:45:54;6.50;99.90
10530;DHT22;5313;48.834;9.228;2023-04-03T10:48:40;6.40;99.90
10530;DHT22;5313;48.834;9.228;2023-04-03T10:53:55;6.60;99.90
10530;DHT22;5313;48.834;9.228;2023-04-03T10:56:36;6.50;99.90
10530;DHT22;5313;48.834;9.228;2023-04-03T10:59:17;6.40;99.90
10530;DHT22;5313;48.834;9.228;2023-04-03T11:01:52;6.50;99.90
10530;DHT22;5313;48.834;9.228;2023-04-03T11:04:20;6.60;99.90
10530;DHT22;5313;48.834;9.228;2023-04-03T11:06:51;6.70;99.90
10530;DHT22;5313;48.834;9.228;2023-04-03T11:09:24;6.60;99.90
10530;DHT22;5313;48.834;9.228;2023-04-03T11:11:55;6.70;99.90
10530;DHT22;5313;48.834;9.228;2023-04-03T11:14:30;6.60;99.90
10530;DHT22;5313;48.834;9.228;2023-04-03T11:17:19;6.50;99.90
10530;DHT22;5313;48.834;9.228;2023-04-03T11:22:57;6.40;99.90
10530;DHT22;5313;48.834;9.228;2023-04-03T11:25:25;6.40;99.90
10530;DHT22;5313;48.834;9.228;2023-04-03T11:28:02;6.50;99.90
10530;DHT22;5313;48.834;9.228;2023-04-03T11:35:47;6.50;99.90
10530;DHT22;5313;48.834;9.228;2023-04-03T11:38:27;6.50;99.90
10530;DHT22;5313;48.834;9.228;2023-04-03T11:40:55;6.50;99.90
10530;DHT22;5313;48.834;9.228;2023-04-03T11:46:05;6.70;99.90
10530;DHT22;5313;48.834;9.228;2023-04-03T11:53:38;6.80;99.90
10530;DHT22;5313;48.834;9.228;2023-04-03T12:04:12;6.80;99.90
10530;DHT22;5313;48.834;9.228;2023-04-03T12:09:24;6.70;99.90
10530;DHT22;5313;48.834;9.228;2023-04-03T12:11:50;6.70;99.90
10530;DHT22;5313;48.834;9.228;2023-04-03T12:14:16;6.80;99.90
10530;DHT22;5313;48.834;9.228;2023-04-03T12:16:45;6.80;99.90
10530;DHT22;5313;48.834;9.228;2023-04-03T12:26:50;7.50;99.90
10530;DHT22;5313;48.834;9.228;2023-04-03T12:35:19;7.10;99.90
10530;DHT22;5313;48.834;9.228;2023-04-03T12:48:38;6.80;99.90
10530;DHT22;5313;48.834;9.228;2023-04-03T12:51:04;6.90;99.90
10530;DHT22;5313;48.834;9.228;2023-04-03T12:53:35;7.00;99.90
10530;DHT22;5313;48.834;9.228;2023-04-03T12:56:22;7.10;99.90
10530;DHT22;5313;48.834;9.228;2023-04-03T12:58:51;7.10;99.90
10530;DHT22;5313;48.834;9.228;2023-04-03T13:01:18;7.10;99.90
10530;DHT22;5313;48.834;9.228;2023-04-03T13:03:49;7.10;99.90
10530;DHT22;5313;48.834;9.228;2023-04-03T13:06:34;7.40;99.90
10530;DHT22;5313;48.834;9.228;2023-04-03T13:09:03;7.40;99.90
10530;DHT22;5313;48.834;9.228;2023-04-03T13:11:40;7.40;99.90
10530;DHT22;5313;48.834;9.228;2023-04-03T13:14:19;7.30;99.90
10530;DHT22;5313;48.834;9.228;2023-04-03T13:17:06;7.20;99.90
10530;DHT22;5313;48.834;9.228;2023-04-03T13:19:35;7.20;99.90
10530;DHT22;5313;48.834;9.228;2023-04-03T13:22:03;7.30;99.90
10530;DHT22;5313;48.834;9.228;2023-04-03T13:24:32;7.40;99.90
10530;DHT22;5313;48.834;9.228;2023-04-03T13:27:00;7.40;99.90
10530;DHT22;5313;48.834;9.228;2023-04-03T13:29:35;7.30;99.90
10530;DHT22;5313;48.834;9.228;2023-04-03T13:32:02;7.40;99.90
10530;DHT22;5313;48.834;9.228;2023-04-03T13:34:37;7.60;99.90
10530;DHT22;5313;48.834;9.228;2023-04-03T13:37:03;7.70;99.90
10530;DHT22;5313;48.834;9.228;2023-04-03T13:39:34;7.80;99.90
10530;DHT22;5313;48.834;9.228;2023-04-03T13:42:15;7.90;99.90
10530;DHT22;5313;48.834;9.228;2023-04-03T13:44:41;7.90;99.90
10530;DHT22;5313;48.834;9.228;2023-04-03T13:49:42;7.90;99.90
10530;DHT22;5313;48.834;9.228;2023-04-03T13:52:32;7.90;99.90
10530;DHT22;5313;48.834;9.228;2023-04-03T13:55:25;7.90;99.90
10530;DHT22;5313;48.834;9.228;2023-04-03T14:03:46;7.60;99.90
10530;DHT22;5313;48.834;9.228;2023-04-03T14:06:15;7.60;99.90
10530;DHT22;5313;48.834;9.228;2023-04-03T14:08:42;7.60;99.90
10530;DHT22;5313;48.834;9.228;2023-04-03T14:11:16;7.90;99.90
10530;DHT22;5313;48.834;9.228;2023-04-03T14:13:43;7.40;99.90
10530;DHT22;5313;48.834;9.228;2023-04-03T14:16:14;7.30;99.90
10530;DHT22;5313;48.834;9.228;2023-04-03T14:18:40;7.50;99.90
10530;DHT22;5313;48.834;9.228;2023-04-03T14:21:06;7.40;99.90
10530;DHT22;5313;48.834;9.228;2023-04-03T14:23:31;7.50;99.90
10530;DHT22;5313;48.834;9.228;2023-04-03T14:25:58;7.60;99.90
10530;DHT22;5313;48.834;9.228;2023-04-03T14:28:25;7.60;99.90
10530;DHT22;5313;48.834;9.228;2023-04-03T14:30:51;7.70;99.90
10530;DHT22;5313;48.834;9.228;2023-04-03T14:33:20;8.20;99.90
10530;DHT22;5313;48.834;9.228;2023-04-03T14:35:47;8.40;99.90
10530;DHT22;5313;48.834;9.228;2023-04-03T14:38:27;8.10;98.50
10530;DHT22;5313;48.834;9.228;2023-04-03T14:40:55;7.90;99.90
10530;DHT22;5313;48.834;9.228;2023-04-03T14:43:21;7.80;99.90
10530;DHT22;5313;48.834;9.228;2023-04-03T14:45:48;7.60;99.90
10530;DHT22;5313;48.834;9.228;2023-04-03T14:48:22;7.60;99.90
10530;DHT22;5313;48.834;9.228;2023-04-03T14:50:49;7.50;99.90
10530;DHT22;5313;48.834;9.228;2023-04-03T14:53:16;7.50;99.90
10530;DHT22;5313;48.834;9.228;2023-04-03T14:55:45;7.60;99.90
10530;DHT22;5313;48.834;9.228;2023-04-03T14:58:14;7.50;99.90
10530;DHT22;5313;48.834;9.228;2023-04-03T15:00:40;7.50;99.90
10530;DHT22;5313;48.834;9.228;2023-04-03T15:03:12;7.50;99.90
10530;DHT22;5313;48.834;9.228;2023-04-03T15:05:38;7.60;99.90
10530;DHT22;5313;48.834;9.228;2023-04-03T15:08:04;7.60;99.90
10530;DHT22;5313;48.834;9.228;2023-04-03T15:10:30;7.60;99.90
10530;DHT22;5313;48.834;9.228;2023-04-03T15:12:57;7.70;99.70
10530;DHT22;5313;48.834;9.228;2023-04-03T15:15:23;7.80;99.90
10530;DHT22;5313;48.834;9.228;2023-04-03T15:17:55;7.90;99.40
10530;DHT22;5313;48.834;9.228;2023-04-03T15:20:25;7.70;99.60
10530;DHT22;5313;48.834;9.228;2023-04-03T15:22:51;7.70;99.90
10530;DHT22;5313;48.834;9.228;2023-04-03T15:25:17;7.70;98.80
10530;DHT22;5313;48.834;9.228;2023-04-03T15:27:43;7.60;99.70
10530;DHT22;5313;48.834;9.228;2023-04-03T15:30:16;7.30;99.40
10530;DHT22;5313;48.834;9.228;2023-04-03T15:32:42;7.30;99.90
10530;DHT22;5313;48.834;9.228;2023-04-03T15:35:07;7.30;99.30
10530;DHT22;5313;48.834;9.228;2023-04-03T15:37:33;7.40;99.60
10530;DHT22;5313;48.834;9.228;2023-04-03T15:39:59;7.50;98.40
10530;DHT22;5313;48.834;9.228;2023-04-03T15:42:24;7.70;98.20
10530;DHT22;5313;48.834;9.228;2023-04-03T15:44:50;7.70;96.40
10530;DHT22;5313;48.834;9.228;2023-04-03T15:47:16;7.60;95.40
10530;DHT22;5313;48.834;9.228;2023-04-03T15:49:42;7.60;95.50
10530;DHT22;5313;48.834;9.228;2023-04-03T15:52:07;7.70;97.80
10530;DHT22;5313;48.834;9.228;2023-04-03T15:54:33;7.80;98.30
10530;DHT22;5313;48.834;9.228;2023-04-03T15:56:58;7.80;96.50
10530;DHT22;5313;48.834;9.228;2023-04-03T15:59:24;7.80;95.60
10530;DHT22;5313;48.834;9.228;2023-04-03T16:01:50;8.00;96.80
10530;DHT22;5313;48.834;9.228;2023-04-03T16:04:17;8.20;97.20
10530;DHT22;5313;48.834;9.228;2023-04-03T16:06:45;8.20;96.90
10530;DHT22;5313;48.834;9.228;2023-04-03T16:09:11;8.00;97.40
10530;DHT22;5313;48.834;9.228;2023-04-03T16:11:36;7.80;98.40
10530;DHT22;5313;48.834;9.228;2023-04-03T16:14:05;7.60;98.20
10530;DHT22;5313;48.834;9.228;2023-04-03T16:16:31;7.40;99.10
10530;DHT22;5313;48.834;9.228;2023-04-03T16:18:56;7.20;99.80
10530;DHT22;5313;48.834;9.228;2023-04-03T16:21:22;7.10;99.90
10530;DHT22;5313;48.834;9.228;2023-04-03T16:23:48;7.00;99.90
10530;DHT22;5313;48.834;9.228;2023-04-03T16:26:14;7.00;99.90
10530;DHT22;5313;48.834;9.228;2023-04-03T16:28:40;7.10;99.80
10530;DHT22;5313;48.834;9.228;2023-04-03T16:31:06;7.30;98.90
10530;DHT22;5313;48.834;9.228;2023-04-03T16:33:32;7.50;99.10
10530;DHT22;5313;48.834;9.228;2023-04-03T16:35:59;7.60;97.50
10530;DHT22;5313;48.834;9.228;2023-04-03T16:38:25;7.60;96.90
10530;DHT22;5313;48.834;9.228;2023-04-03T16:40:51;7.50;97.00
10530;DHT22;5313;48.834;9.228;2023-04-03T16:43:18;7.50;97.40
10530;DHT22;5313;48.834;9.228;2023-04-03T16:45:44;7.40;97.40
10530;DHT22;5313;48.834;9.228;2023-04-03T16:48:10;7.40;98.10
10530;DHT22;5313;48.834;9.228;2023-04-03T16:50:35;7.50;99.00
10530;DHT22;5313;48.834;9.228;2023-04-03T16:53:01;7.50;98.30
10530;DHT22;5313;48.834;9.228;2023-04-03T16:55:28;7.30;96.50
10530;DHT22;5313;48.834;9.228;2023-04-03T16:57:54;7.20;97.50
10530;DHT22;5313;48.834;9.228;2023-04-03T17:00:20;7.10;97.30
10530;DHT22;5313;48.834;9.228;2023-04-03T17:02:46;7.10;98.70
10530;DHT22;5313;48.834;9.228;2023-04-03T17:05:12;7.00;99.90
10530;DHT22;5313;48.834;9.228;2023-04-03T17:07:37;7.00;99.90
10530;DHT22;5313;48.834;9.228;2023-04-03T17:10:03;6.90;99.90
10530;DHT22;5313;48.834;9.228;2023-04-03T17:12:29;6.90;99.90
10530;DHT22;5313;48.834;9.228;2023-04-03T17:14:54;6.90;99.90
10530;DHT22;5313;48.834;9.228;2023-04-03T17:17:22;7.00;99.90
10530;DHT22;5313;48.834;9.228;2023-04-03T17:19:49;6.90;99.90
10530;DHT22;5313;48.834;9.228;2023-04-03T17:22:14;6.80;99.90
10530;DHT22;5313;48.834;9.228;2023-04-03T17:24:41;6.70;99.90
10530;DHT22;5313;48.834;9.228;2023-04-03T17:27:07;6.60;99.90
10530;DHT22;5313;48.834;9.228;2023-04-03T17:29:33;6.50;99.90
10530;DHT22;5313;48.834;9.228;2023-04-03T17:31:58;6.50;99.90
10530;DHT22;5313;48.834;9.228;2023-04-03T17:34:24;6.40;99.90
10530;DHT22;5313;48.834;9.228;2023-04-03T17:36:49;6.40;99.90
10530;DHT22;5313;48.834;9.228;2023-04-03T17:39:15;6.40;99.90
10530;DHT22;5313;48.834;9.228;2023-04-03T17:41:41;6.40;99.90